Time;durP1;ratioP1;P1;durP2;ratioP2;P2;SDS_P1;SDS_P2;PMS_P1;PMS_P2;Temp;Humidity;BMP_temperature;BMP_pressure;BME280_temperature;BME280_humidity;BME280_pressure;Samples;Min_cycle;Max_cycle;Signal;HPM_P1;HPM_P2
2022/10/28 00:00:06;;;;;;;15.72;12.43;;;;;;;10.54;100.00;100800.52;1732403;82;21312;-73
2022/10/28 00:02:34;;;;;;;16.07;12.20;;;;;;;10.55;100.00;100809.81;1728355;82;21457;-73
2022/10/28 00:05:01;;;;;;;16.70;12.45;;;;;;;10.56;100.00;100805.20;1747031;82;20986;-73
2022/10/28 00:07:29;;;;;;;13.68;11.55;;;;;;;10.53;100.00;100800.21;1745823;82;20957;-73
2022/10/28 00:09:55;;;;;;;16.23;12.88;;;;;;;10.49;100.00;100798.52;1742706;82;21524;-73
2022/10/28 00:12:22;;;;;;;14.53;12.50;;;;;;;10.49;100.00;100802.07;1731608;82;20919;-73
2022/10/28 00:14:48;;;;;;;16.42;12.05;;;;;;;10.53;100.00;100807.02;1742944;82;21531;-73
2022/10/28 00:17:14;;;;;;;15.08;11.43;;;;;;;10.52;100.00;100809.47;1742885;82;20994;-73
2022/10/28 00:19:41;;;;;;;14.78;11.83;;;;;;;10.51;100.00;100803.20;1726087;82;21058;-73
2022/10/28 00:22:09;;;;;;;13.28;10.72;;;;;;;10.53;100.00;100805.12;1726774;82;20950;-73
2022/10/28 00:24:36;;;;;;;19.25;11.03;;;;;;;10.55;100.00;100804.89;1711796;82;21038;-73
2022/10/28 00:27:02;;;;;;;13.25;10.70;;;;;;;10.57;100.00;100802.73;1716605;82;20931;-73
2022/10/28 00:29:31;;;;;;;17.15;10.08;;;;;;;10.58;100.00;100800.31;1713939;82;21018;-73
2022/10/28 00:31:57;;;;;;;13.55;11.08;;;;;;;10.60;100.00;100810.41;1739621;82;20975;-73
2022/10/28 00:34:23;;;;;;;13.65;9.93;;;;;;;10.59;100.00;100810.97;1732641;82;21034;-73
2022/10/28 00:36:50;;;;;;;;;;;;;;;10.57;100.00;100809.02;1722718;82;20955;-73
2022/10/28 00:39:20;;;;;;;13.48;9.53;;;;;;;10.52;100.00;100813.55;1735952;82;20108;-73
2022/10/28 00:41:51;;;;;;;15.45;10.58;;;;;;;10.38;100.00;100819.28;1737236;82;20951;-73
2022/10/28 00:44:54;;;;;;;12.63;9.98;;;;;;;10.34;100.00;100814.06;1720749;82;21061;-73
2022/10/28 00:47:41;;;;;;;14.87;11.90;;;;;;;10.36;100.00;100818.72;1731627;82;21006;-73
2022/10/28 00:50:34;;;;;;;16.20;12.43;;;;;;;10.32;100.00;100809.91;1727038;82;21094;-73
2022/10/28 00:53:04;;;;;;;14.70;12.60;;;;;;;10.28;100.00;100807.38;1732550;82;21407;-73
2022/10/28 00:55:30;;;;;;;16.57;12.20;;;;;;;10.23;100.00;100810.03;1733469;82;20959;-73
2022/10/28 00:57:58;;;;;;;15.65;12.82;;;;;;;10.22;100.00;100807.84;1716197;82;20978;-73
2022/10/28 01:00:24;;;;;;;15.30;10.90;;;;;;;10.19;100.00;100812.41;1727113;82;20911;-73
2022/10/28 01:02:51;;;;;;;15.70;12.18;;;;;;;10.17;100.00;100810.45;1725943;82;21017;-73
2022/10/28 01:05:23;;;;;;;16.32;11.90;;;;;;;10.14;100.00;100810.94;1716452;82;21476;-73
2022/10/28 01:07:50;;;;;;;17.30;11.48;;;;;;;10.19;100.00;100813.77;1723851;82;20975;-73
2022/10/28 01:10:18;;;;;;;17.02;12.43;;;;;;;10.24;100.00;100807.05;1722316;82;21409;-73
2022/10/28 01:12:59;;;;;;;15.10;13.05;;;;;;;10.31;100.00;100814.53;1721953;81;21571;-73
2022/10/28 01:15:40;;;;;;;18.12;13.35;;;;;;;10.34;100.00;100809.16;1723611;82;21453;-73
2022/10/28 01:18:18;;;;;;;15.50;13.40;;;;;;;10.32;100.00;100809.38;1729325;82;20974;-73
2022/10/28 01:21:08;;;;;;;14.90;13.18;;;;;;;10.33;100.00;100808.85;1732472;82;21000;-73
2022/10/28 01:24:01;;;;;;;15.90;11.53;;;;;;;10.28;100.00;100806.86;1735441;82;21026;-73
2022/10/28 01:26:57;;;;;;;14.30;11.35;;;;;;;10.21;100.00;100813.52;1719278;82;20979;-72
2022/10/28 01:30:00;;;;;;;15.38;9.80;;;;;;;10.19;100.00;100818.38;1727761;82;21034;-72
2022/10/28 01:32:38;;;;;;;15.05;9.40;;;;;;;10.19;100.00;100809.69;1729648;82;21600;-73
2022/10/28 01:35:19;;;;;;;11.73;8.73;;;;;;;10.18;100.00;100811.28;1728050;82;21047;-72
2022/10/28 01:38:13;;;;;;;13.32;9.03;;;;;;;10.20;100.00;100813.24;1726465;82;21042;-73
2022/10/28 01:40:48;;;;;;;12.82;9.58;;;;;;;10.20;100.00;100813.24;1736226;82;21526;-73
2022/10/28 01:43:53;;;;;;;13.00;9.85;;;;;;;10.19;100.00;100812.41;1714943;82;21602;-72
2022/10/28 01:46:32;;;;;;;15.83;10.35;;;;;;;10.18;100.00;100817.55;1713411;82;20998;-73
2022/10/28 01:49:03;;;;;;;13.95;10.28;;;;;;;10.19;100.00;100819.75;1727032;82;21088;-73
2022/10/28 01:51:36;;;;;;;12.65;9.35;;;;;;;10.21;100.00;100822.50;1735847;82;20970;-72
2022/10/28 01:54:04;;;;;;;12.68;9.10;;;;;;;10.23;100.00;100819.55;1736212;82;21538;-73
2022/10/28 01:56:35;;;;;;;13.18;8.95;;;;;;;10.23;100.00;100818.19;1712898;82;20966;-73
2022/10/28 01:59:01;;;;;;;14.20;9.00;;;;;;;10.29;100.00;100824.02;1713650;82;21037;-70
2022/10/28 02:01:28;;;;;;;14.63;9.05;;;;;;;10.31;100.00;100830.86;1724863;82;21474;-70
2022/10/28 02:03:55;;;;;;;11.38;8.63;;;;;;;10.28;100.00;100820.99;1735854;82;21047;-73
2022/10/28 02:06:24;;;;;;;11.68;8.75;;;;;;;10.28;100.00;100819.09;1732516;82;21807;-73
2022/10/28 02:09:11;;;;;;;11.33;8.80;;;;;;;10.32;100.00;100820.80;1711294;82;21046;-73
2022/10/28 02:12:01;;;;;;;10.72;8.35;;;;;;;10.34;100.00;100820.04;1730081;82;20985;-73
2022/10/28 02:15:05;;;;;;;12.75;8.85;;;;;;;10.32;100.00;100820.27;1729671;82;21089;-73
2022/10/28 02:18:04;;;;;;;13.03;8.43;;;;;;;10.27;100.00;100810.64;1717440;82;20950;-73
2022/10/28 02:20:54;;;;;;;14.23;9.70;;;;;;;10.26;100.00;100813.63;1698564;82;21617;-73
2022/10/28 02:23:47;;;;;;;11.90;9.48;;;;;;;10.19;100.00;100822.47;1685412;83;21091;-73
2022/10/28 02:26:28;;;;;;;11.05;9.40;;;;;;;10.11;100.00;100818.20;1687838;83;20972;-73
2022/10/28 02:29:06;;;;;;;12.40;9.10;;;;;;;10.08;100.00;100813.25;1686957;83;21573;-73
2022/10/28 02:31:38;;;;;;;12.00;9.13;;;;;;;10.09;100.00;100820.88;1710175;83;20980;-73
2022/10/28 02:34:10;;;;;;;11.43;9.33;;;;;;;10.07;100.00;100812.12;1659771;85;21067;-73
2022/10/28 02:36:40;;;;;;;16.10;10.43;;;;;;;10.05;100.00;100811.02;1660805;86;20948;-73
2022/10/28 02:39:07;;;;;;;10.72;8.70;;;;;;;10.07;100.00;100813.48;1715435;83;21492;-73
2022/10/28 02:41:53;;;;;;;12.75;8.83;;;;;;;10.10;100.00;100817.06;1714817;83;20972;-73
2022/10/28 02:44:30;;;;;;;11.18;8.68;;;;;;;10.09;100.00;100818.16;1704524;83;21058;-73
2022/10/28 02:47:00;;;;;;;10.93;8.30;;;;;;;10.03;100.00;100807.70;1714684;83;21549;-72
2022/10/28 02:49:27;;;;;;;12.60;8.38;;;;;;;9.99;100.00;100808.71;1708552;83;21055;-73
2022/10/28 02:51:57;;;;;;;14.05;8.45;;;;;;;9.98;100.00;100816.61;1717180;83;20984;-73
2022/10/28 02:54:29;;;;;;;11.43;8.45;;;;;;;9.95;100.00;100814.34;1680361;83;22044;-72
2022/10/28 02:57:05;;;;;;;11.18;8.65;;;;;;;9.91;100.00;100823.24;1707162;83;20983;-73
2022/10/28 02:59:31;;;;;;;12.80;8.80;;;;;;;9.87;100.00;100821.54;1678887;83;21572;-73
2022/10/28 03:01:57;;;;;;;12.33;8.55;;;;;;;9.87;100.00;100826.15;1697828;83;21577;-73
2022/10/28 03:04:24;;;;;;;12.88;9.23;;;;;;;9.86;100.00;100824.48;1705603;83;21067;-73
2022/10/28 03:06:51;;;;;;;12.43;9.23;;;;;;;9.84;100.00;100811.67;1696317;83;21067;-73
2022/10/28 03:09:17;;;;;;;;;;;;;;;9.81;100.00;100817.60;1712610;83;21063;-73
2022/10/28 03:11:44;;;;;;;13.65;9.20;;;;;;;9.79;100.00;100815.64;1712742;83;20147;-73
2022/10/28 03:14:10;;;;;;;;;;;;;;;9.73;100.00;100807.09;1720821;83;21668;-73
2022/10/28 03:16:37;;;;;;;15.60;9.83;;;;;;;9.72;100.00;100801.35;1716392;83;20113;-73
2022/10/28 03:19:03;;;;;;;16.00;9.95;;;;;;;9.63;100.00;100810.43;1652984;84;21090;-73
2022/10/28 03:21:31;;;;;;;14.00;9.30;;;;;;;9.59;100.00;100811.97;1707996;83;21023;-73
2022/10/28 03:23:58;;;;;;;13.85;9.73;;;;;;;9.57;100.00;100816.80;1705950;83;21014;-73
2022/10/28 03:26:25;;;;;;;13.62;9.33;;;;;;;9.56;100.00;100819.78;1709786;83;21522;-73
2022/10/28 03:28:51;;;;;;;11.38;8.80;;;;;;;9.55;100.00;100814.88;1710151;83;21129;-73
2022/10/28 03:31:18;;;;;;;13.58;9.43;;;;;;;9.55;100.00;100813.52;1668548;85;20999;-73
2022/10/28 03:33:44;;;;;;;12.13;8.90;;;;;;;9.56;100.00;100817.89;1708008;83;21570;-73
2022/10/28 03:36:10;;;;;;;13.32;8.78;;;;;;;9.57;100.00;100814.61;1720546;83;20971;-73
2022/10/28 03:38:37;;;;;;;11.85;9.23;;;;;;;9.53;100.00;100808.03;1718663;83;21581;-73
2022/10/28 03:41:03;;;;;;;;;;;;;;;9.53;100.00;100806.67;1705699;83;21074;-73
2022/10/28 03:43:31;;;;;;;15.55;8.68;;;;;;;9.55;100.00;100812.16;1680011;83;20202;-74
2022/10/28 03:45:57;;;;;;;12.47;8.95;;;;;;;9.49;100.00;100809.84;1719900;83;21464;-73
2022/10/28 03:48:24;;;;;;;12.80;9.75;;;;;;;9.54;100.00;100819.17;1711591;83;21562;-73
2022/10/28 03:50:54;;;;;;;14.25;9.45;;;;;;;9.55;100.00;100809.43;1717190;83;21046;-73
2022/10/28 03:53:21;;;;;;;17.73;10.15;;;;;;;9.59;100.00;100811.14;1715180;83;21122;-73
2022/10/28 03:55:54;;;;;;;14.58;9.63;;;;;;;9.59;100.00;100809.25;1720093;83;21087;-73
2022/10/28 03:58:21;;;;;;;16.77;8.58;;;;;;;9.63;100.00;100811.79;1716271;83;21110;-70
2022/10/28 04:00:48;;;;;;;13.18;9.35;;;;;;;9.67;100.00;100812.14;1723849;83;21030;-70
2022/10/28 04:03:17;;;;;;;13.85;9.23;;;;;;;9.69;100.00;100801.84;1681921;85;21075;-71
2022/10/28 04:05:47;;;;;;;13.95;8.80;;;;;;;9.69;100.00;100805.91;1678764;85;21043;-70
2022/10/28 04:08:15;;;;;;;11.73;8.90;;;;;;;9.67;100.00;100801.27;1728057;83;21059;-71
2022/10/28 04:10:42;;;;;;;12.18;9.23;;;;;;;9.68;100.00;100801.00;1708614;83;21027;-70
2022/10/28 04:13:09;;;;;;;14.25;9.10;;;;;;;9.68;100.00;100808.33;1720008;83;20986;-70
2022/10/28 04:15:35;;;;;;;11.68;9.28;;;;;;;9.68;100.00;100803.72;1717206;83;21050;-70
2022/10/28 04:18:04;;;;;;;11.95;9.33;;;;;;;9.69;100.00;100796.40;1717274;83;20991;-70
2022/10/28 04:20:31;;;;;;;14.45;8.93;;;;;;;9.68;100.00;100798.81;1723896;82;20971;-70
2022/10/28 04:22:57;;;;;;;14.65;9.38;;;;;;;9.68;100.00;100797.45;1718137;82;20934;-70
2022/10/28 04:25:24;;;;;;;;;;;;;;;9.65;100.00;100796.58;1732136;82;21011;-71
2022/10/28 04:27:51;;;;;;;12.95;9.08;;;;;;;9.56;100.00;100798.03;1736534;82;20128;-71
2022/10/28 04:30:17;;;;;;;;;;;;;;;9.56;100.00;100798.03;1718962;82;20966;-71
2022/10/28 04:32:43;;;;;;;14.68;8.98;;;;;;;9.51;100.00;100806.89;1728894;82;20360;-72
2022/10/28 04:35:11;;;;;;;13.48;9.23;;;;;;;9.46;100.00;100799.97;1730146;82;21093;-72
2022/10/28 04:37:39;;;;;;;12.35;9.25;;;;;;;9.48;100.00;100808.20;1724822;81;20995;-71
2022/10/28 04:40:06;;;;;;;14.85;9.63;;;;;;;9.50;100.00;100808.78;1702799;82;21053;-72
2022/10/28 04:42:34;;;;;;;11.80;8.78;;;;;;;9.53;100.00;100806.11;1733143;82;20939;-72
2022/10/28 04:45:00;;;;;;;13.62;9.45;;;;;;;9.53;100.00;100812.91;1730149;82;21033;-72
2022/10/28 04:47:27;;;;;;;12.25;10.13;;;;;;;9.47;100.00;100806.55;1734109;82;20954;-71
2022/10/28 04:49:53;;;;;;;;;;;;;;;9.44;100.00;100798.88;1731771;82;21533;-71
2022/10/28 04:52:19;;;;;;;13.08;9.93;;;;;;;9.42;100.00;100802.91;1724329;82;20104;-72
2022/10/28 04:54:48;;;;;;;11.28;9.63;;;;;;;9.36;100.00;100802.47;1693785;83;21657;-73
2022/10/28 04:57:14;;;;;;;13.18;10.30;;;;;;;9.34;100.00;100802.73;1663473;85;21016;-73
2022/10/28 04:59:41;;;;;;;13.30;10.03;;;;;;;9.30;100.00;100806.15;1688512;84;21496;-72
2022/10/28 05:02:07;;;;;;;14.23;9.53;;;;;;;9.28;100.00;100802.86;1675625;84;21015;-73
2022/10/28 05:04:33;;;;;;;;;;;;;;;9.26;100.00;100804.97;1675032;84;21059;-72
2022/10/28 05:07:00;;;;;;;14.58;9.85;;;;;;;9.24;100.00;100812.55;1657371;85;20383;-73
2022/10/28 05:09:26;;;;;;;16.07;10.48;;;;;;;9.19;100.00;100814.60;1723891;82;21078;-72
2022/10/28 05:11:53;;;;;;;16.40;9.93;;;;;;;9.18;100.00;100812.94;1728011;82;21005;-73
2022/10/28 05:14:20;;;;;;;12.70;10.18;;;;;;;9.14;100.00;100810.39;1746091;82;21030;-73
2022/10/28 05:16:47;;;;;;;15.90;9.70;;;;;;;9.14;100.00;100811.75;1746079;82;20963;-73
2022/10/28 05:19:13;;;;;;;17.20;10.95;;;;;;;9.17;100.00;100816.74;1746145;82;21474;-73
2022/10/28 05:21:40;;;;;;;16.67;10.78;;;;;;;9.23;100.00;100810.88;1754346;82;21014;-73
2022/10/28 05:24:07;;;;;;;12.95;10.20;;;;;;;9.29;100.00;100809.39;1752492;82;20990;-73
2022/10/28 05:26:34;;;;;;;14.80;10.82;;;;;;;9.35;100.00;100811.16;1730165;82;21024;-73
2022/10/28 05:29:00;;;;;;;14.98;11.40;;;;;;;9.36;100.00;100815.53;1732253;82;21061;-72
2022/10/28 05:31:27;;;;;;;16.50;10.80;;;;;;;9.33;100.00;100812.47;1742609;82;20998;-72
2022/10/28 05:33:53;;;;;;;16.20;10.00;;;;;;;9.31;100.00;100820.05;1754766;82;21625;-73
2022/10/28 05:36:20;;;;;;;15.45;10.80;;;;;;;9.32;100.00;100825.75;1729036;82;20997;-73
2022/10/28 05:38:48;;;;;;;;;;;;;;;9.32;100.00;100828.47;1747341;82;21066;-73
2022/10/28 05:41:14;;;;;;;14.15;10.88;;;;;;;9.34;100.00;100827.72;1729112;82;20406;-72
2022/10/28 05:43:41;;;;;;;15.32;10.98;;;;;;;9.28;100.00;100827.31;1736311;82;21053;-73
2022/10/28 05:46:08;;;;;;;18.98;11.43;;;;;;;9.29;100.00;100837.92;1724329;83;21060;-73
2022/10/28 05:48:34;;;;;;;15.88;11.15;;;;;;;9.32;100.00;100837.45;1724290;83;21007;-73
2022/10/28 05:51:01;;;;;;;17.70;11.93;;;;;;;9.34;100.00;100835.87;1740530;82;20994;-72
2022/10/28 05:53:29;;;;;;;17.67;11.88;;;;;;;9.39;100.00;100833.25;1746997;82;21552;-72
2022/10/28 05:55:55;;;;;;;15.40;13.00;;;;;;;9.45;100.00;100828.24;1733513;82;21553;-73
2022/10/28 05:58:21;;;;;;;16.12;11.75;;;;;;;9.48;100.00;100826.40;1735427;82;20986;-72
2022/10/28 06:00:48;;;;;;;15.95;11.83;;;;;;;9.43;100.00;100832.55;1731448;82;20993;-74
2022/10/28 06:03:14;;;;;;;15.93;11.85;;;;;;;9.43;100.00;100830.35;1754330;82;21014;-73
2022/10/28 06:05:42;;;;;;;16.02;11.45;;;;;;;9.47;100.00;100841.88;1754560;82;21596;-72
2022/10/28 06:08:12;;;;;;;12.20;10.78;;;;;;;9.54;100.00;100842.28;1752084;82;21380;-72
2022/10/28 08:53:02;;;;;;;16.73;11.08;;;;;;;13.19;100.00;100816.12;1797478;78;22952;-72
2022/10/28 08:55:38;;;;;;;6.10;4.75;;;;;;;13.43;100.00;100815.45;1771236;80;21062;-72
2022/10/28 08:58:20;;;;;;;4.65;3.22;;;;;;;13.82;100.00;100817.84;1738977;82;21014;-72
2022/10/28 09:00:54;;;;;;;6.97;5.30;;;;;;;14.23;100.00;100816.09;1777310;80;21105;-71
2022/10/28 09:03:25;;;;;;;7.22;4.37;;;;;;;14.64;100.00;100807.42;1774340;80;21054;-70
2022/10/28 09:06:05;;;;;;;6.58;4.00;;;;;;;14.98;100.00;100805.81;1775894;80;21661;-71
2022/10/28 09:08:36;;;;;;;8.45;4.53;;;;;;;15.22;100.00;100795.08;1770591;80;21050;-71
2022/10/28 09:11:21;;;;;;;9.18;7.03;;;;;;;15.32;100.00;100791.77;1754646;80;21098;-69
2022/10/28 09:14:23;;;;;;;5.53;3.00;;;;;;;15.42;100.00;100784.06;1775448;80;21118;-70
2022/10/28 09:17:19;;;;;;;4.03;2.60;;;;;;;15.58;100.00;100783.51;1775964;80;21169;-70
2022/10/28 09:19:51;;;;;;;3.67;2.62;;;;;;;15.74;100.00;100774.93;1752803;82;21070;-70
2022/10/28 09:22:26;;;;;;;3.27;2.50;;;;;;;15.76;100.00;100772.75;1756004;81;22291;-70
2022/10/28 09:25:14;;;;;;;3.30;2.33;;;;;;;15.66;100.00;100765.10;1757708;80;21562;-70
2022/10/28 09:27:55;;;;;;;3.25;2.20;;;;;;;15.59;100.00;100770.06;1775629;80;21070;-71
2022/10/28 09:30:52;;;;;;;4.75;2.27;;;;;;;15.50;100.00;100764.32;1764721;80;21006;-71
2022/10/28 09:34:03;;;;;;;3.17;1.80;;;;;;;15.57;100.00;100768.13;1777221;80;21574;-67
2022/10/28 09:36:40;;;;;;;3.33;1.90;;;;;;;15.60;100.00;100759.34;1781786;80;21557;-70
2022/10/28 09:39:20;;;;;;;2.98;1.90;;;;;;;15.47;100.00;100751.67;1775308;80;21054;-69
2022/10/28 09:41:47;;;;;;;3.08;2.10;;;;;;;15.45;100.00;100754.14;1784667;80;21387;-68
2022/10/28 09:44:34;;;;;;;2.33;1.50;;;;;;;15.57;100.00;100745.63;1784487;80;21022;-70
2022/10/28 09:47:01;;;;;;;3.10;1.67;;;;;;;15.71;100.00;100746.67;1782622;80;21073;-70
2022/10/28 09:49:32;;;;;;;1.50;1.00;;;;;;;15.87;100.00;100735.08;1730124;82;21517;-72
2022/10/28 09:52:19;;;;;;;3.58;1.17;;;;;;;15.94;100.00;100730.09;1700373;83;21800;-71
2022/10/28 09:54:50;;;;;;;4.47;1.27;;;;;;;15.97;100.00;100724.59;1676098;85;21051;-69
2022/10/28 09:57:17;;;;;;;2.20;1.02;;;;;;;15.96;100.00;100724.30;1672380;85;21074;-71
2022/10/28 10:00:04;;;;;;;;;;;;;;;;;;;;;
2022/10/28 10:02:32;;;;;;;2.72;1.22;;;;;;;15.87;100.00;100717.23;1715963;82;21115;-69
2022/10/28 10:05:00;;;;;;;3.62;1.92;;;;;;;15.98;100.00;100717.41;1739723;81;21983;-70
2022/10/28 10:07:59;;;;;;;2.95;1.50;;;;;;;16.03;100.00;100713.83;1735550;82;21102;-70
2022/10/28 10:10:52;;;;;;;4.53;1.40;;;;;;;16.05;100.00;100715.18;1728278;81;21066;-70
2022/10/28 10:13:24;;;;;;;5.53;1.70;;;;;;;16.11;100.00;100712.69;1739113;81;20976;-69
2022/10/28 10:15:54;;;;;;;2.40;1.20;;;;;;;16.15;100.00;100711.56;1735272;81;21118;-72
2022/10/28 10:18:29;;;;;;;3.40;1.20;;;;;;;16.19;100.00;100709.31;1733218;82;21486;-72
2022/10/28 10:20:59;;;;;;;3.80;1.30;;;;;;;16.15;100.00;100701.95;1737873;82;20976;-72
2022/10/28 10:23:36;;;;;;;2.83;1.20;;;;;;;16.08;100.00;100700.08;1745050;82;21035;-73
2022/10/28 10:26:13;;;;;;;3.40;1.10;;;;;;;16.09;100.00;100698.95;1727248;82;21191;-73
2022/10/28 10:28:45;;;;;;;2.25;1.20;;;;;;;16.13;100.00;100700.02;1743561;82;21093;-72
2022/10/28 10:31:25;;;;;;;2.35;1.10;;;;;;;16.20;100.00;100698.61;1739774;82;21652;-73
2022/10/28 10:33:53;;;;;;;2.33;1.05;;;;;;;16.27;100.00;100693.61;1735322;81;21050;-73
2022/10/28 10:36:27;;;;;;;3.50;0.90;;;;;;;16.35;100.00;100688.88;1746343;81;21306;-72
2022/10/28 10:38:57;;;;;;;3.05;1.10;;;;;;;16.41;100.00;100689.65;1732573;81;21628;-71
2022/10/28 10:41:36;;;;;;;5.83;1.55;;;;;;;16.48;100.00;100687.94;1749394;81;22138;-72
2022/10/28 10:44:23;;;;;;;3.30;1.02;;;;;;;16.43;100.00;100681.41;1751647;82;21635;-73
2022/10/28 10:47:05;;;;;;;2.85;1.30;;;;;;;16.25;100.00;100675.23;1743479;81;21081;-72
2022/10/28 10:49:31;;;;;;;3.40;1.30;;;;;;;16.25;100.00;100677.15;1751361;82;21014;-72
2022/10/28 10:52:01;;;;;;;4.05;1.67;;;;;;;16.32;100.00;100680.39;1754979;81;21768;-72
2022/10/28 10:54:30;;;;;;;2.45;1.20;;;;;;;16.28;100.00;100675.20;1761106;81;21072;-70
2022/10/28 10:57:19;;;;;;;4.33;1.87;;;;;;;16.29;100.00;100679.59;1760601;81;21150;-72
2022/10/28 10:59:46;;;;;;;3.95;1.70;;;;;;;16.29;100.00;100674.10;1760991;81;21586;-71
2022/10/28 11:02:25;;;;;;;4.10;1.70;;;;;;;16.27;100.00;100669.43;1760624;81;22327;-70
2022/10/28 11:04:55;;;;;;;3.58;1.60;;;;;;;16.28;100.00;100675.20;1760540;81;21040;-71
2022/10/28 11:07:22;;;;;;;3.42;1.27;;;;;;;16.35;100.00;100672.95;1762626;81;21056;-71
2022/10/28 11:09:48;;;;;;;2.77;1.35;;;;;;;16.43;100.00;100674.53;1762389;81;20988;-71
2022/10/28 11:12:31;;;;;;;2.80;1.80;;;;;;;16.55;100.00;100672.77;1762514;81;21114;-71
2022/10/28 11:15:00;;;;;;;2.87;1.80;;;;;;;16.71;100.00;100668.81;1762453;81;20988;-71
2022/10/28 11:17:30;;;;;;;3.72;1.80;;;;;;;16.81;100.00;100667.87;1762096;81;21012;-69
2022/10/28 11:19:59;;;;;;;4.03;1.90;;;;;;;16.86;100.00;100659.59;1762159;81;21543;-71
2022/10/28 11:22:44;;;;;;;6.08;1.87;;;;;;;16.93;100.00;100660.63;1761197;81;21122;-69
2022/10/28 11:25:43;;;;;;;3.70;1.60;;;;;;;16.95;100.00;100660.58;1761012;81;21035;-69
2022/10/28 11:28:32;;;;;;;2.95;1.80;;;;;;;17.00;100.00;100656.41;1761074;81;21102;-70
2022/10/28 11:31:25;;;;;;;3.33;1.87;;;;;;;16.96;100.00;100653.16;1761095;81;22151;-71
2022/10/28 11:34:14;;;;;;;3.08;2.00;;;;;;;16.82;100.00;100647.53;1761132;81;21538;-71
2022/10/28 11:36:58;;;;;;;5.15;2.60;;;;;;;16.70;100.00;100649.30;1761270;81;21150;-72
2022/10/28 11:39:52;;;;;;;3.98;2.45;;;;;;;16.55;100.00;100655.45;1761536;81;21522;-73
2022/10/28 11:42:39;;;;;;;4.45;2.08;;;;;;;16.48;100.00;100647.54;1760895;81;21087;-73
2022/10/28 11:45:29;;;;;;;6.00;2.25;;;;;;;16.43;100.00;100644.86;1725052;81;21055;-72
2022/10/28 11:48:15;;;;;;;3.98;1.70;;;;;;;16.40;100.00;100644.86;1760680;81;21131;-72
2022/10/28 11:51:04;;;;;;;3.65;2.10;;;;;;;16.24;100.00;100641.98;1760916;81;21091;-70
2022/10/28 11:53:49;;;;;;;4.50;2.10;;;;;;;16.14;100.00;100634.38;1763269;81;21103;-71
2022/10/28 11:56:20;;;;;;;4.12;2.42;;;;;;;16.06;100.00;100636.36;1738299;81;22163;-72
2022/10/28 11:59:12;;;;;;;4.75;2.40;;;;;;;15.93;100.00;100635.91;1763997;81;21043;-72
2022/10/28 12:02:25;;;;;;;3.15;2.25;;;;;;;15.85;100.00;100640.63;1763618;81;21060;-71
2022/10/28 12:05:10;;;;;;;4.45;2.37;;;;;;;15.74;100.00;100640.42;1764064;81;21031;-72
2022/10/28 12:08:07;;;;;;;4.33;2.27;;;;;;;15.66;100.00;100633.35;1763864;81;21170;-70
2022/10/28 12:11:20;;;;;;;5.60;2.60;;;;;;;15.55;100.00;100635.34;1764292;81;21094;-71
2022/10/28 12:14:29;;;;;;;5.70;2.58;;;;;;;15.47;100.00;100630.95;1763129;81;22027;-68
2022/10/28 12:17:19;;;;;;;4.45;2.33;;;;;;;15.40;100.00;100632.63;1763936;81;21186;-69
2022/10/28 12:19:59;;;;;;;3.70;2.20;;;;;;;15.32;100.00;100631.84;1762838;81;21118;-69
2022/10/28 12:22:53;;;;;;;5.12;2.10;;;;;;;15.28;100.00;100626.09;1763874;81;21170;-70
2022/10/28 12:25:25;;;;;;;4.50;2.22;;;;;;;15.27;100.00;100631.30;1729563;81;21115;-70
2022/10/28 12:27:56;;;;;;;3.45;2.10;;;;;;;15.21;100.00;100626.95;1763186;81;21181;-70
2022/10/28 12:30:26;;;;;;;3.85;2.33;;;;;;;15.16;100.00;100627.53;1764092;81;21632;-70
2022/10/28 12:32:57;;;;;;;4.95;2.20;;;;;;;15.12;100.00;100629.19;1763956;81;21173;-70
2022/10/28 12:35:31;;;;;;;4.22;2.37;;;;;;;15.10;100.00;100630.83;1763985;81;21590;-70
2022/10/28 12:38:09;;;;;;;3.58;2.33;;;;;;;15.08;100.00;100626.19;1763527;81;21511;-70
2022/10/28 12:40:47;;;;;;;5.47;2.50;;;;;;;15.04;100.00;100622.91;1763746;81;21047;-69
2022/10/28 17:43:57;;;;;;;27.55;18.70;;;;;;;8.94;100.00;100518.00;1797893;78;22290;-69
2022/10/28 17:46:24;;;;;;;21.50;15.38;;;;;;;9.00;100.00;100514.31;1749996;79;21104;-69
2022/10/28 17:48:51;;;;;;;18.67;14.07;;;;;;;9.19;100.00;100514.94;1685410;84;21377;-68
2022/10/28 17:51:21;;;;;;;22.27;15.10;;;;;;;9.37;100.00;100513.38;1678174;83;21110;-69
2022/10/28 17:53:54;;;;;;;17.92;13.32;;;;;;;9.52;100.00;100515.53;1687902;83;21110;-69
2022/10/28 17:56:21;;;;;;;19.30;13.58;;;;;;;9.70;100.00;100515.30;1677207;83;21514;-69
2022/10/28 17:58:53;;;;;;;31.17;21.12;;;;;;;9.87;100.00;100514.75;1685469;83;21113;-69
2022/10/28 18:01:20;;;;;;;38.13;27.77;;;;;;;10.03;100.00;100517.98;1668578;84;22370;-70
2022/10/28 18:03:50;;;;;;;35.33;24.60;;;;;;;10.19;100.00;100509.55;1704772;83;22074;-69
2022/10/28 18:06:17;;;;;;;36.80;26.73;;;;;;;10.33;100.00;100508.12;1706919;83;21062;-70
2022/10/28 18:08:45;;;;;;;37.05;25.17;;;;;;;10.45;100.00;100509.64;1660527;83;21120;-68
2022/10/28 18:11:15;;;;;;;31.70;24.07;;;;;;;10.56;100.00;100498.34;1674330;84;21212;-69
2022/10/28 18:13:43;;;;;;;32.15;25.25;;;;;;;10.67;100.00;100499.29;1646516;84;21604;-68
2022/10/28 18:16:14;;;;;;;28.52;22.13;;;;;;;10.76;100.00;100492.34;1692602;82;21010;-68
2022/10/28 18:18:42;;;;;;;25.57;20.25;;;;;;;10.84;100.00;100498.70;1682293;84;21052;-68
2022/10/28 18:21:10;;;;;;;24.47;20.90;;;;;;;10.90;100.00;100498.50;1673392;84;21624;-67
2022/10/28 18:23:42;;;;;;;25.02;20.23;;;;;;;10.96;100.00;100496.64;1672214;84;21014;-67
2022/10/28 18:26:11;;;;;;;24.20;20.27;;;;;;;11.03;100.00;100495.08;1703080;82;21065;-68
2022/10/28 18:28:38;;;;;;;26.07;19.40;;;;;;;11.06;100.00;100499.47;1720256;83;21138;-69
2022/10/28 18:31:11;;;;;;;21.57;17.60;;;;;;;11.08;100.00;100491.88;1661911;85;21077;-69
2022/10/28 18:33:38;;;;;;;24.35;17.30;;;;;;;11.13;100.00;100497.91;1690445;84;21073;-69
2022/10/28 18:36:11;;;;;;;22.80;17.27;;;;;;;11.19;100.00;100503.17;1689349;83;21069;-69
2022/10/28 18:38:38;;;;;;;25.85;21.55;;;;;;;11.26;100.00;100496.15;1691203;84;21018;-69
2022/10/28 18:41:15;;;;;;;29.02;20.30;;;;;;;11.32;100.00;100495.94;1678352;84;21069;-69
2022/10/28 18:43:41;;;;;;;30.23;21.70;;;;;;;11.37;100.00;100493.81;1694313;84;21030;-69
2022/10/28 18:46:08;;;;;;;27.80;19.37;;;;;;;11.41;100.00;100494.37;1681369;84;21041;-69
2022/10/28 18:48:35;;;;;;;20.92;15.35;;;;;;;11.45;100.00;100491.95;1682600;84;21022;-69
2022/10/28 18:51:05;;;;;;;25.17;18.98;;;;;;;11.51;100.00;100499.12;1679917;84;21097;-69
2022/10/28 18:53:39;;;;;;;23.70;19.05;;;;;;;11.54;100.00;100493.14;1686116;84;21119;-69
2022/10/28 18:56:09;;;;;;;27.05;21.20;;;;;;;11.59;100.00;100494.52;1661436;84;21054;-69
2022/10/28 18:58:36;;;;;;;23.30;18.25;;;;;;;11.64;100.00;100497.31;1695510;84;21037;-69
2022/10/28 19:01:06;;;;;;;22.75;17.37;;;;;;;11.67;100.00;100493.23;1692279;84;21078;-71
2022/10/28 19:03:33;;;;;;;24.92;18.27;;;;;;;11.65;100.00;100494.87;1679318;84;22104;-72
2022/10/28 19:06:02;;;;;;;;;;;;;;;11.65;100.00;100492.14;1689312;84;21097;-71
2022/10/28 19:08:29;;;;;;;24.50;19.12;;;;;;;11.67;100.00;100492.70;1690319;84;20145;-71
2022/10/28 19:10:57;;;;;;;25.77;19.87;;;;;;;11.64;100.00;100497.31;1686706;84;21096;-71
2022/10/28 19:13:23;;;;;;;23.80;20.10;;;;;;;11.67;100.00;100491.33;1695916;84;21018;-72
2022/10/28 19:15:50;;;;;;;;;;;;;;;11.71;100.00;100492.48;1701385;84;21077;-71
2022/10/28 19:18:18;;;;;;;31.23;22.17;;;;;;;11.73;100.00;100490.31;1684427;83;20466;-71
2022/10/28 19:20:44;;;;;;;;;;;;;;;11.65;100.00;100494.05;1688688;84;21611;-71
2022/10/28 19:23:11;;;;;;;33.70;26.85;;;;;;;11.67;100.00;100495.42;1693978;84;20165;-71
2022/10/28 19:25:38;;;;;;;30.97;23.67;;;;;;;11.67;100.00;100495.42;1685537;84;21073;-73
2022/10/28 19:28:04;;;;;;;;;;;;;;;11.68;100.00;100494.88;1689904;84;21073;-73